sensor_id;sensor_type;location;lat;lon;timestamp;P1;durP1;ratioP1;P2;durP2;ratioP2
37237;SDS011;23129;49.662;8.448;2023-08-31T00:01:01;9.15;;;3.35;;
37237;SDS011;23129;49.662;8.448;2023-08-31T00:03:31;7.53;;;4.03;;
37237;SDS011;23129;49.662;8.448;2023-08-31T00:06:01;8.52;;;3.00;;
37237;SDS011;23129;49.662;8.448;2023-08-31T00:08:30;10.40;;;3.67;;
37237;SDS011;23129;49.662;8.448;2023-08-31T00:10:59;7.57;;;3.35;;
37237;SDS011;23129;49.662;8.448;2023-08-31T00:13:29;3.65;;;3.25;;
37237;SDS011;23129;49.662;8.448;2023-08-31T00:15:58;5.32;;;3.80;;
37237;SDS011;23129;49.662;8.448;2023-08-31T00:18:28;6.75;;;3.47;;
37237;SDS011;23129;49.662;8.448;2023-08-31T00:20:57;7.60;;;3.70;;
37237;SDS011;23129;49.662;8.448;2023-08-31T00:23:25;5.03;;;3.50;;
37237;SDS011;23129;49.662;8.448;2023-08-31T00:25:54;3.22;;;2.97;;
37237;SDS011;23129;49.662;8.448;2023-08-31T00:28:23;4.22;;;3.40;;
37237;SDS011;23129;49.662;8.448;2023-08-31T00:30:53;2.85;;;2.55;;
37237;SDS011;23129;49.662;8.448;2023-08-31T00:33:25;3.55;;;2.92;;
37237;SDS011;23129;49.662;8.448;2023-08-31T00:35:55;6.90;;;3.15;;
37237;SDS011;23129;49.662;8.448;2023-08-31T00:38:27;5.30;;;3.15;;
37237;SDS011;23129;49.662;8.448;2023-08-31T00:40:56;7.40;;;3.28;;
37237;SDS011;23129;49.662;8.448;2023-08-31T00:43:25;3.00;;;2.70;;
37237;SDS011;23129;49.662;8.448;2023-08-31T00:45:54;6.85;;;3.65;;
37237;SDS011;23129;49.662;8.448;2023-08-31T00:48:25;6.45;;;4.20;;
37237;SDS011;23129;49.662;8.448;2023-08-31T00:50:55;4.22;;;2.95;;
37237;SDS011;23129;49.662;8.448;2023-08-31T00:53:24;3.20;;;2.95;;
37237;SDS011;23129;49.662;8.448;2023-08-31T00:55:53;7.65;;;2.60;;
37237;SDS011;23129;49.662;8.448;2023-08-31T00:58:21;3.20;;;2.45;;
37237;SDS011;23129;49.662;8.448;2023-08-31T01:00:55;4.68;;;3.35;;
37237;SDS011;23129;49.662;8.448;2023-08-31T01:03:35;7.10;;;3.88;;
37237;SDS011;23129;49.662;8.448;2023-08-31T01:06:12;9.55;;;3.20;;
37237;SDS011;23129;49.662;8.448;2023-08-31T01:08:48;6.57;;;4.35;;
37237;SDS011;23129;49.662;8.448;2023-08-31T01:11:26;10.40;;;3.95;;
37237;SDS011;23129;49.662;8.448;2023-08-31T01:14:02;5.47;;;4.00;;
37237;SDS011;23129;49.662;8.448;2023-08-31T01:16:40;5.57;;;3.70;;
37237;SDS011;23129;49.662;8.448;2023-08-31T01:19:14;5.28;;;4.40;;
37237;SDS011;23129;49.662;8.448;2023-08-31T01:21:53;10.07;;;4.90;;
37237;SDS011;23129;49.662;8.448;2023-08-31T01:24:27;6.75;;;4.68;;
37237;SDS011;23129;49.662;8.448;2023-08-31T01:26:56;9.27;;;4.10;;
37237;SDS011;23129;49.662;8.448;2023-08-31T01:29:26;7.63;;;5.30;;
37237;SDS011;23129;49.662;8.448;2023-08-31T01:31:57;14.18;;;5.93;;
37237;SDS011;23129;49.662;8.448;2023-08-31T01:34:25;8.48;;;4.82;;
37237;SDS011;23129;49.662;8.448;2023-08-31T01:36:56;13.30;;;6.55;;
37237;SDS011;23129;49.662;8.448;2023-08-31T01:39:32;8.10;;;5.80;;
37237;SDS011;23129;49.662;8.448;2023-08-31T01:42:06;10.73;;;6.53;;
37237;SDS011;23129;49.662;8.448;2023-08-31T01:44:36;8.32;;;6.05;;
37237;SDS011;23129;49.662;8.448;2023-08-31T01:47:05;20.00;;;7.13;;
37237;SDS011;23129;49.662;8.448;2023-08-31T01:49:37;19.88;;;7.97;;
37237;SDS011;23129;49.662;8.448;2023-08-31T01:52:06;14.43;;;9.57;;
37237;SDS011;23129;49.662;8.448;2023-08-31T01:54:37;10.73;;;6.65;;
37237;SDS011;23129;49.662;8.448;2023-08-31T01:57:06;16.88;;;8.05;;
37237;SDS011;23129;49.662;8.448;2023-08-31T01:59:55;10.55;;;7.07;;
37237;SDS011;23129;49.662;8.448;2023-08-31T02:02:24;11.07;;;7.65;;
37237;SDS011;23129;49.662;8.448;2023-08-31T02:04:53;13.98;;;8.43;;
37237;SDS011;23129;49.662;8.448;2023-08-31T02:07:23;14.55;;;8.77;;
37237;SDS011;23129;49.662;8.448;2023-08-31T02:09:53;11.63;;;7.60;;
37237;SDS011;23129;49.662;8.448;2023-08-31T02:12:22;14.25;;;8.27;;
37237;SDS011;23129;49.662;8.448;2023-08-31T02:14:51;14.95;;;7.68;;
37237;SDS011;23129;49.662;8.448;2023-08-31T02:17:19;12.68;;;7.93;;
37237;SDS011;23129;49.662;8.448;2023-08-31T02:19:48;9.93;;;7.75;;
37237;SDS011;23129;49.662;8.448;2023-08-31T02:22:17;10.43;;;8.05;;
37237;SDS011;23129;49.662;8.448;2023-08-31T02:24:46;13.48;;;8.90;;
37237;SDS011;23129;49.662;8.448;2023-08-31T02:27:17;14.57;;;9.10;;
37237;SDS011;23129;49.662;8.448;2023-08-31T02:29:47;16.02;;;9.23;;
37237;SDS011;23129;49.662;8.448;2023-08-31T02:32:16;14.30;;;8.48;;
37237;SDS011;23129;49.662;8.448;2023-08-31T02:34:45;13.52;;;8.43;;
37237;SDS011;23129;49.662;8.448;2023-08-31T02:37:14;19.17;;;8.68;;
37237;SDS011;23129;49.662;8.448;2023-08-31T02:39:43;16.88;;;9.88;;
37237;SDS011;23129;49.662;8.448;2023-08-31T02:42:13;21.25;;;8.82;;
37237;SDS011;23129;49.662;8.448;2023-08-31T02:44:46;17.30;;;10.18;;
37237;SDS011;23129;49.662;8.448;2023-08-31T02:47:19;18.52;;;10.05;;
37237;SDS011;23129;49.662;8.448;2023-08-31T02:49:48;14.07;;;9.07;;
37237;SDS011;23129;49.662;8.448;2023-08-31T02:52:17;14.55;;;8.15;;
37237;SDS011;23129;49.662;8.448;2023-08-31T02:54:46;16.75;;;8.15;;
37237;SDS011;23129;49.662;8.448;2023-08-31T02:57:16;20.45;;;8.15;;
37237;SDS011;23129;49.662;8.448;2023-08-31T02:59:50;12.35;;;8.02;;
37237;SDS011;23129;49.662;8.448;2023-08-31T03:02:19;15.25;;;7.45;;
37237;SDS011;23129;49.662;8.448;2023-08-31T03:04:48;21.48;;;6.55;;
37237;SDS011;23129;49.662;8.448;2023-08-31T03:07:17;14.95;;;5.13;;
37237;SDS011;23129;49.662;8.448;2023-08-31T03:09:48;14.15;;;6.75;;
37237;SDS011;23129;49.662;8.448;2023-08-31T03:12:17;14.02;;;5.97;;
37237;SDS011;23129;49.662;8.448;2023-08-31T03:14:46;11.40;;;6.93;;
37237;SDS011;23129;49.662;8.448;2023-08-31T03:17:18;13.82;;;5.97;;
37237;SDS011;23129;49.662;8.448;2023-08-31T03:19:47;10.82;;;5.28;;
37237;SDS011;23129;49.662;8.448;2023-08-31T03:22:16;9.52;;;5.88;;
37237;SDS011;23129;49.662;8.448;2023-08-31T03:24:45;13.30;;;6.72;;
37237;SDS011;23129;49.662;8.448;2023-08-31T03:27:14;10.20;;;6.38;;
37237;SDS011;23129;49.662;8.448;2023-08-31T03:29:43;13.63;;;6.80;;
37237;SDS011;23129;49.662;8.448;2023-08-31T03:32:12;14.45;;;6.22;;
37237;SDS011;23129;49.662;8.448;2023-08-31T03:34:42;10.05;;;6.00;;
37237;SDS011;23129;49.662;8.448;2023-08-31T03:37:11;11.98;;;7.45;;
37237;SDS011;23129;49.662;8.448;2023-08-31T03:39:40;8.55;;;5.75;;
37237;SDS011;23129;49.662;8.448;2023-08-31T03:42:09;10.85;;;6.43;;
37237;SDS011;23129;49.662;8.448;2023-08-31T03:44:38;10.98;;;6.50;;
37237;SDS011;23129;49.662;8.448;2023-08-31T03:47:06;11.30;;;5.60;;
37237;SDS011;23129;49.662;8.448;2023-08-31T03:49:35;13.75;;;5.53;;
37237;SDS011;23129;49.662;8.448;2023-08-31T03:52:07;9.98;;;5.35;;
37237;SDS011;23129;49.662;8.448;2023-08-31T03:54:36;5.13;;;4.55;;
37237;SDS011;23129;49.662;8.448;2023-08-31T03:57:05;9.20;;;5.25;;
37237;SDS011;23129;49.662;8.448;2023-08-31T03:59:34;8.50;;;5.88;;
37237;SDS011;23129;49.662;8.448;2023-08-31T04:02:03;9.27;;;4.47;;
37237;SDS011;23129;49.662;8.448;2023-08-31T04:04:33;6.47;;;4.65;;
37237;SDS011;23129;49.662;8.448;2023-08-31T04:07:01;7.93;;;4.85;;
37237;SDS011;23129;49.662;8.448;2023-08-31T04:09:32;7.80;;;5.25;;
37237;SDS011;23129;49.662;8.448;2023-08-31T04:12:01;14.80;;;6.05;;
37237;SDS011;23129;49.662;8.448;2023-08-31T04:14:30;8.52;;;4.45;;
37237;SDS011;23129;49.662;8.448;2023-08-31T04:16:59;5.22;;;4.18;;
37237;SDS011;23129;49.662;8.448;2023-08-31T04:19:28;6.25;;;5.05;;
37237;SDS011;23129;49.662;8.448;2023-08-31T04:21:56;7.00;;;4.32;;
37237;SDS011;23129;49.662;8.448;2023-08-31T04:24:26;6.70;;;4.45;;
37237;SDS011;23129;49.662;8.448;2023-08-31T04:26:56;6.18;;;4.07;;
37237;SDS011;23129;49.662;8.448;2023-08-31T04:29:25;5.75;;;4.55;;
37237;SDS011;23129;49.662;8.448;2023-08-31T04:31:54;14.02;;;5.85;;
37237;SDS011;23129;49.662;8.448;2023-08-31T04:34:22;9.00;;;5.38;;
37237;SDS011;23129;49.662;8.448;2023-08-31T04:36:51;12.63;;;6.22;;
37237;SDS011;23129;49.662;8.448;2023-08-31T04:39:20;15.35;;;5.43;;
37237;SDS011;23129;49.662;8.448;2023-08-31T04:41:49;8.15;;;4.63;;
37237;SDS011;23129;49.662;8.448;2023-08-31T04:44:19;9.80;;;6.07;;
37237;SDS011;23129;49.662;8.448;2023-08-31T04:46:49;15.45;;;6.22;;
37237;SDS011;23129;49.662;8.448;2023-08-31T04:49:17;9.48;;;6.13;;
37237;SDS011;23129;49.662;8.448;2023-08-31T04:51:46;15.55;;;5.78;;
37237;SDS011;23129;49.662;8.448;2023-08-31T04:54:15;17.58;;;5.72;;
37237;SDS011;23129;49.662;8.448;2023-08-31T04:56:43;12.50;;;5.63;;
37237;SDS011;23129;49.662;8.448;2023-08-31T04:59:12;14.95;;;5.50;;
37237;SDS011;23129;49.662;8.448;2023-08-31T05:01:42;11.10;;;5.65;;
37237;SDS011;23129;49.662;8.448;2023-08-31T05:04:11;14.55;;;6.05;;
37237;SDS011;23129;49.662;8.448;2023-08-31T05:06:40;14.32;;;5.97;;
37237;SDS011;23129;49.662;8.448;2023-08-31T05:09:08;14.70;;;6.00;;
37237;SDS011;23129;49.662;8.448;2023-08-31T05:11:37;10.95;;;5.82;;
37237;SDS011;23129;49.662;8.448;2023-08-31T05:14:06;18.08;;;7.00;;
37237;SDS011;23129;49.662;8.448;2023-08-31T05:16:34;17.67;;;7.80;;
37237;SDS011;23129;49.662;8.448;2023-08-31T05:19:05;12.00;;;6.03;;
37237;SDS011;23129;49.662;8.448;2023-08-31T05:21:34;10.93;;;5.40;;
37237;SDS011;23129;49.662;8.448;2023-08-31T05:24:02;7.60;;;5.03;;
37237;SDS011;23129;49.662;8.448;2023-08-31T05:26:32;9.95;;;5.00;;
37237;SDS011;23129;49.662;8.448;2023-08-31T05:29:00;8.32;;;5.57;;
37237;SDS011;23129;49.662;8.448;2023-08-31T05:31:30;7.13;;;4.75;;
37237;SDS011;23129;49.662;8.448;2023-08-31T05:33:59;5.05;;;4.55;;
37237;SDS011;23129;49.662;8.448;2023-08-31T05:36:30;8.52;;;5.22;;
37237;SDS011;23129;49.662;8.448;2023-08-31T05:38:58;9.95;;;5.30;;
37237;SDS011;23129;49.662;8.448;2023-08-31T05:41:27;6.85;;;5.32;;
37237;SDS011;23129;49.662;8.448;2023-08-31T05:43:56;7.70;;;5.03;;
37237;SDS011;23129;49.662;8.448;2023-08-31T05:46:25;7.80;;;4.93;;
37237;SDS011;23129;49.662;8.448;2023-08-31T05:48:54;8.95;;;4.82;;
37237;SDS011;23129;49.662;8.448;2023-08-31T05:51:22;12.30;;;5.97;;
37237;SDS011;23129;49.662;8.448;2023-08-31T05:53:52;11.73;;;6.55;;
37237;SDS011;23129;49.662;8.448;2023-08-31T05:56:21;10.85;;;5.90;;
37237;SDS011;23129;49.662;8.448;2023-08-31T05:58:50;9.05;;;6.05;;
37237;SDS011;23129;49.662;8.448;2023-08-31T06:01:21;12.10;;;6.72;;
37237;SDS011;23129;49.662;8.448;2023-08-31T06:03:50;11.00;;;6.28;;
37237;SDS011;23129;49.662;8.448;2023-08-31T06:06:19;9.18;;;6.60;;
37237;SDS011;23129;49.662;8.448;2023-08-31T06:08:47;11.43;;;6.72;;
37237;SDS011;23129;49.662;8.448;2023-08-31T06:11:18;9.73;;;5.50;;
37237;SDS011;23129;49.662;8.448;2023-08-31T06:13:47;10.65;;;6.78;;
37237;SDS011;23129;49.662;8.448;2023-08-31T06:16:16;11.27;;;6.28;;
37237;SDS011;23129;49.662;8.448;2023-08-31T06:18:45;13.35;;;6.97;;
37237;SDS011;23129;49.662;8.448;2023-08-31T06:21:14;11.38;;;6.55;;
37237;SDS011;23129;49.662;8.448;2023-08-31T06:23:42;14.75;;;5.05;;
37237;SDS011;23129;49.662;8.448;2023-08-31T06:26:11;9.20;;;4.40;;
37237;SDS011;23129;49.662;8.448;2023-08-31T06:28:41;6.97;;;4.15;;
37237;SDS011;23129;49.662;8.448;2023-08-31T06:31:10;11.32;;;3.42;;
37237;SDS011;23129;49.662;8.448;2023-08-31T06:33:39;14.25;;;3.85;;
37237;SDS011;23129;49.662;8.448;2023-08-31T06:36:07;12.25;;;3.72;;
37237;SDS011;23129;49.662;8.448;2023-08-31T06:38:36;4.13;;;3.42;;
37237;SDS011;23129;49.662;8.448;2023-08-31T06:41:05;11.35;;;3.70;;
37237;SDS011;23129;49.662;8.448;2023-08-31T06:43:35;18.83;;;3.50;;
37237;SDS011;23129;49.662;8.448;2023-08-31T06:46:05;5.30;;;2.97;;
37237;SDS011;23129;49.662;8.448;2023-08-31T06:48:50;6.63;;;3.80;;
37237;SDS011;23129;49.662;8.448;2023-08-31T06:51:18;8.48;;;3.88;;
37237;SDS011;23129;49.662;8.448;2023-08-31T06:53:50;6.78;;;3.45;;
37237;SDS011;23129;49.662;8.448;2023-08-31T06:56:20;8.60;;;3.50;;
37237;SDS011;23129;49.662;8.448;2023-08-31T06:58:49;7.35;;;3.53;;
37237;SDS011;23129;49.662;8.448;2023-08-31T07:01:19;8.25;;;3.95;;
37237;SDS011;23129;49.662;8.448;2023-08-31T07:03:47;11.63;;;2.97;;
37237;SDS011;23129;49.662;8.448;2023-08-31T07:06:16;11.25;;;3.55;;
37237;SDS011;23129;49.662;8.448;2023-08-31T07:08:45;13.88;;;3.90;;
37237;SDS011;23129;49.662;8.448;2023-08-31T07:11:14;10.10;;;3.22;;
37237;SDS011;23129;49.662;8.448;2023-08-31T07:13:43;13.65;;;3.30;;
37237;SDS011;23129;49.662;8.448;2023-08-31T07:16:12;9.00;;;2.75;;
37237;SDS011;23129;49.662;8.448;2023-08-31T07:18:42;13.70;;;2.58;;
37237;SDS011;23129;49.662;8.448;2023-08-31T07:21:10;7.13;;;2.20;;
37237;SDS011;23129;49.662;8.448;2023-08-31T07:23:40;9.32;;;1.70;;
37237;SDS011;23129;49.662;8.448;2023-08-31T07:26:08;6.32;;;1.98;;
37237;SDS011;23129;49.662;8.448;2023-08-31T07:28:37;3.05;;;1.73;;
37237;SDS011;23129;49.662;8.448;2023-08-31T07:31:06;7.35;;;2.00;;
37237;SDS011;23129;49.662;8.448;2023-08-31T07:33:35;5.43;;;2.00;;
37237;SDS011;23129;49.662;8.448;2023-08-31T07:36:06;4.93;;;1.80;;
37237;SDS011;23129;49.662;8.448;2023-08-31T07:38:34;3.80;;;2.03;;
37237;SDS011;23129;49.662;8.448;2023-08-31T07:41:03;5.25;;;1.88;;
37237;SDS011;23129;49.662;8.448;2023-08-31T07:43:32;9.32;;;2.15;;
37237;SDS011;23129;49.662;8.448;2023-08-31T07:46:01;2.67;;;1.42;;
37237;SDS011;23129;49.662;8.448;2023-08-31T07:48:30;6.70;;;1.75;;
37237;SDS011;23129;49.662;8.448;2023-08-31T07:50:58;2.65;;;1.30;;
37237;SDS011;23129;49.662;8.448;2023-08-31T07:53:28;5.13;;;1.58;;
37237;SDS011;23129;49.662;8.448;2023-08-31T07:55:57;3.20;;;1.75;;
37237;SDS011;23129;49.662;8.448;2023-08-31T07:58:26;7.05;;;1.80;;
37237;SDS011;23129;49.662;8.448;2023-08-31T08:00:55;3.70;;;1.45;;
37237;SDS011;23129;49.662;8.448;2023-08-31T08:03:24;4.35;;;1.70;;
37237;SDS011;23129;49.662;8.448;2023-08-31T08:05:55;1.75;;;1.38;;
37237;SDS011;23129;49.662;8.448;2023-08-31T08:08:24;2.70;;;1.55;;
37237;SDS011;23129;49.662;8.448;2023-08-31T08:10:54;9.23;;;1.75;;
37237;SDS011;23129;49.662;8.448;2023-08-31T08:13:23;5.63;;;1.20;;
37237;SDS011;23129;49.662;8.448;2023-08-31T08:15:52;3.47;;;0.98;;
37237;SDS011;23129;49.662;8.448;2023-08-31T08:18:21;6.05;;;1.33;;
37237;SDS011;23129;49.662;8.448;2023-08-31T08:20:50;6.45;;;1.50;;
37237;SDS011;23129;49.662;8.448;2023-08-31T08:23:19;9.00;;;1.73;;
37237;SDS011;23129;49.662;8.448;2023-08-31T08:25:48;2.17;;;1.10;;
37237;SDS011;23129;49.662;8.448;2023-08-31T08:28:18;4.72;;;1.10;;
37237;SDS011;23129;49.662;8.448;2023-08-31T08:30:47;5.43;;;1.33;;
37237;SDS011;23129;49.662;8.448;2023-08-31T08:33:16;5.18;;;1.85;;
37237;SDS011;23129;49.662;8.448;2023-08-31T08:35:45;4.63;;;1.30;;
37237;SDS011;23129;49.662;8.448;2023-08-31T08:38:14;2.88;;;1.17;;
37237;SDS011;23129;49.662;8.448;2023-08-31T08:40:42;2.42;;;1.30;;
37237;SDS011;23129;49.662;8.448;2023-08-31T08:43:11;2.30;;;1.33;;
37237;SDS011;23129;49.662;8.448;2023-08-31T08:45:42;3.45;;;1.10;;
37237;SDS011;23129;49.662;8.448;2023-08-31T08:48:14;4.47;;;1.05;;
37237;SDS011;23129;49.662;8.448;2023-08-31T08:50:43;3.70;;;1.50;;
37237;SDS011;23129;49.662;8.448;2023-08-31T08:53:12;2.90;;;1.23;;
37237;SDS011;23129;49.662;8.448;2023-08-31T08:55:41;4.55;;;1.60;;
37237;SDS011;23129;49.662;8.448;2023-08-31T08:58:10;7.03;;;1.23;;
37237;SDS011;23129;49.662;8.448;2023-08-31T09:00:39;3.58;;;0.98;;
37237;SDS011;23129;49.662;8.448;2023-08-31T09:03:10;5.28;;;1.38;;
37237;SDS011;23129;49.662;8.448;2023-08-31T09:05:40;2.95;;;1.95;;
37237;SDS011;23129;49.662;8.448;2023-08-31T09:08:09;3.78;;;1.35;;
37237;SDS011;23129;49.662;8.448;2023-08-31T09:10:39;4.60;;;1.20;;
37237;SDS011;23129;49.662;8.448;2023-08-31T09:13:10;5.95;;;1.30;;
37237;SDS011;23129;49.662;8.448;2023-08-31T09:15:43;7.80;;;1.55;;
37237;SDS011;23129;49.662;8.448;2023-08-31T09:18:16;2.17;;;1.40;;
37237;SDS011;23129;49.662;8.448;2023-08-31T09:20:50;3.45;;;1.38;;
37237;SDS011;23129;49.662;8.448;2023-08-31T09:23:20;5.53;;;1.10;;
37237;SDS011;23129;49.662;8.448;2023-08-31T09:25:49;6.20;;;1.20;;
37237;SDS011;23129;49.662;8.448;2023-08-31T09:28:20;7.30;;;1.85;;
37237;SDS011;23129;49.662;8.448;2023-08-31T09:30:50;3.00;;;1.25;;
37237;SDS011;23129;49.662;8.448;2023-08-31T09:33:21;5.25;;;1.10;;
37237;SDS011;23129;49.662;8.448;2023-08-31T09:35:50;5.20;;;1.10;;
37237;SDS011;23129;49.662;8.448;2023-08-31T09:38:20;4.13;;;1.27;;
37237;SDS011;23129;49.662;8.448;2023-08-31T09:40:48;7.30;;;1.45;;
37237;SDS011;23129;49.662;8.448;2023-08-31T09:43:20;4.68;;;1.58;;
37237;SDS011;23129;49.662;8.448;2023-08-31T09:45:50;1.98;;;1.20;;
37237;SDS011;23129;49.662;8.448;2023-08-31T09:48:22;3.78;;;0.88;;
37237;SDS011;23129;49.662;8.448;2023-08-31T09:50:52;4.43;;;1.40;;
37237;SDS011;23129;49.662;8.448;2023-08-31T09:53:23;5.32;;;1.20;;
37237;SDS011;23129;49.662;8.448;2023-08-31T09:55:55;4.72;;;2.63;;
37237;SDS011;23129;49.662;8.448;2023-08-31T09:58:25;3.83;;;1.15;;
37237;SDS011;23129;49.662;8.448;2023-08-31T10:00:56;5.22;;;1.00;;
37237;SDS011;23129;49.662;8.448;2023-08-31T10:03:27;1.75;;;1.00;;
37237;SDS011;23129;49.662;8.448;2023-08-31T10:05:57;3.10;;;1.13;;
37237;SDS011;23129;49.662;8.448;2023-08-31T10:08:27;3.70;;;1.45;;
37237;SDS011;23129;49.662;8.448;2023-08-31T10:10:58;2.20;;;1.10;;
37237;SDS011;23129;49.662;8.448;2023-08-31T10:13:30;2.47;;;1.40;;
37237;SDS011;23129;49.662;8.448;2023-08-31T10:16:03;6.45;;;1.58;;
37237;SDS011;23129;49.662;8.448;2023-08-31T10:18:35;3.58;;;1.52;;
37237;SDS011;23129;49.662;8.448;2023-08-31T10:21:04;1.33;;;0.90;;
37237;SDS011;23129;49.662;8.448;2023-08-31T10:23:32;1.70;;;1.15;;
37237;SDS011;23129;49.662;8.448;2023-08-31T10:26:05;3.72;;;2.00;;
37237;SDS011;23129;49.662;8.448;2023-08-31T10:28:40;2.30;;;1.27;;
37237;SDS011;23129;49.662;8.448;2023-08-31T10:31:10;5.30;;;2.08;;
37237;SDS011;23129;49.662;8.448;2023-08-31T10:36:15;4.65;;;1.40;;
37237;SDS011;23129;49.662;8.448;2023-08-31T10:38:45;1.73;;;1.42;;
37237;SDS011;23129;49.662;8.448;2023-08-31T10:41:21;4.72;;;1.52;;
37237;SDS011;23129;49.662;8.448;2023-08-31T10:43:52;3.50;;;1.00;;
37237;SDS011;23129;49.662;8.448;2023-08-31T10:46:25;1.98;;;0.93;;
37237;SDS011;23129;49.662;8.448;2023-08-31T10:48:57;1.38;;;1.23;;
37237;SDS011;23129;49.662;8.448;2023-08-31T10:51:27;1.30;;;1.10;;
37237;SDS011;23129;49.662;8.448;2023-08-31T10:54:07;3.15;;;1.40;;
37237;SDS011;23129;49.662;8.448;2023-08-31T10:56:50;3.60;;;1.17;;
37237;SDS011;23129;49.662;8.448;2023-08-31T10:59:45;1.73;;;1.10;;
37237;SDS011;23129;49.662;8.448;2023-08-31T11:02:28;2.15;;;1.05;;
37237;SDS011;23129;49.662;8.448;2023-08-31T11:05:01;4.38;;;1.50;;
37237;SDS011;23129;49.662;8.448;2023-08-31T11:07:35;3.72;;;1.48;;
37237;SDS011;23129;49.662;8.448;2023-08-31T11:10:11;4.22;;;1.20;;
37237;SDS011;23129;49.662;8.448;2023-08-31T11:12:44;3.63;;;1.20;;
37237;SDS011;23129;49.662;8.448;2023-08-31T11:15:14;4.35;;;1.40;;
37237;SDS011;23129;49.662;8.448;2023-08-31T11:17:44;3.28;;;1.33;;
37237;SDS011;23129;49.662;8.448;2023-08-31T11:20:15;4.03;;;1.25;;
37237;SDS011;23129;49.662;8.448;2023-08-31T11:22:46;2.03;;;1.30;;
37237;SDS011;23129;49.662;8.448;2023-08-31T11:25:17;3.88;;;1.10;;
37237;SDS011;23129;49.662;8.448;2023-08-31T11:27:52;3.58;;;1.48;;
37237;SDS011;23129;49.662;8.448;2023-08-31T11:30:22;4.32;;;1.27;;
37237;SDS011;23129;49.662;8.448;2023-08-31T11:32:52;4.45;;;1.00;;
37237;SDS011;23129;49.662;8.448;2023-08-31T11:35:23;3.70;;;1.48;;
37237;SDS011;23129;49.662;8.448;2023-08-31T11:38:00;2.63;;;1.25;;
37237;SDS011;23129;49.662;8.448;2023-08-31T11:40:29;3.35;;;1.45;;
37237;SDS011;23129;49.662;8.448;2023-08-31T11:42:58;2.15;;;1.08;;
37237;SDS011;23129;49.662;8.448;2023-08-31T11:45:27;8.10;;;1.42;;
37237;SDS011;23129;49.662;8.448;2023-08-31T11:47:57;3.10;;;1.40;;
37237;SDS011;23129;49.662;8.448;2023-08-31T11:50:28;2.45;;;1.17;;
37237;SDS011;23129;49.662;8.448;2023-08-31T11:52:57;5.15;;;2.03;;
37237;SDS011;23129;49.662;8.448;2023-08-31T11:55:26;5.13;;;1.67;;
37237;SDS011;23129;49.662;8.448;2023-08-31T11:57:55;5.75;;;1.20;;
37237;SDS011;23129;49.662;8.448;2023-08-31T12:00:24;8.13;;;1.73;;
37237;SDS011;23129;49.662;8.448;2023-08-31T12:02:56;7.60;;;1.55;;
37237;SDS011;23129;49.662;8.448;2023-08-31T12:05:25;7.15;;;1.85;;
37237;SDS011;23129;49.662;8.448;2023-08-31T12:07:58;3.08;;;1.35;;
37237;SDS011;23129;49.662;8.448;2023-08-31T12:10:28;6.05;;;1.77;;
37237;SDS011;23129;49.662;8.448;2023-08-31T12:13:07;8.25;;;2.40;;
37237;SDS011;23129;49.662;8.448;2023-08-31T12:15:37;4.65;;;2.00;;
37237;SDS011;23129;49.662;8.448;2023-08-31T12:18:07;5.53;;;1.50;;
37237;SDS011;23129;49.662;8.448;2023-08-31T12:20:43;3.88;;;1.60;;
37237;SDS011;23129;49.662;8.448;2023-08-31T12:23:13;8.38;;;1.92;;
37237;SDS011;23129;49.662;8.448;2023-08-31T12:25:46;4.68;;;1.35;;
37237;SDS011;23129;49.662;8.448;2023-08-31T12:28:15;10.07;;;1.73;;
37237;SDS011;23129;49.662;8.448;2023-08-31T12:30:46;4.50;;;2.25;;
37237;SDS011;23129;49.662;8.448;2023-08-31T12:33:16;3.17;;;1.50;;
37237;SDS011;23129;49.662;8.448;2023-08-31T12:35:47;4.25;;;1.65;;
37237;SDS011;23129;49.662;8.448;2023-08-31T12:38:16;5.10;;;1.70;;
37237;SDS011;23129;49.662;8.448;2023-08-31T12:40:45;2.95;;;1.67;;
37237;SDS011;23129;49.662;8.448;2023-08-31T12:43:14;10.20;;;1.90;;
37237;SDS011;23129;49.662;8.448;2023-08-31T12:45:44;4.00;;;1.58;;
37237;SDS011;23129;49.662;8.448;2023-08-31T12:48:13;7.15;;;1.40;;
37237;SDS011;23129;49.662;8.448;2023-08-31T12:50:41;4.38;;;1.90;;
37237;SDS011;23129;49.662;8.448;2023-08-31T12:53:11;3.85;;;2.00;;
37237;SDS011;23129;49.662;8.448;2023-08-31T12:55:41;5.80;;;1.75;;
37237;SDS011;23129;49.662;8.448;2023-08-31T12:58:09;7.70;;;1.73;;
37237;SDS011;23129;49.662;8.448;2023-08-31T13:00:38;7.93;;;1.73;;
37237;SDS011;23129;49.662;8.448;2023-08-31T13:03:10;6.57;;;1.88;;
37237;SDS011;23129;49.662;8.448;2023-08-31T13:05:40;5.35;;;1.77;;
37237;SDS011;23129;49.662;8.448;2023-08-31T13:08:09;9.95;;;2.60;;
37237;SDS011;23129;49.662;8.448;2023-08-31T13:10:39;4.55;;;2.33;;
37237;SDS011;23129;49.662;8.448;2023-08-31T13:13:08;5.40;;;1.60;;
37237;SDS011;23129;49.662;8.448;2023-08-31T13:15:37;7.15;;;2.13;;
37237;SDS011;23129;49.662;8.448;2023-08-31T13:18:06;3.22;;;1.75;;
37237;SDS011;23129;49.662;8.448;2023-08-31T13:20:35;3.83;;;1.60;;
37237;SDS011;23129;49.662;8.448;2023-08-31T13:23:04;8.65;;;1.48;;
37237;SDS011;23129;49.662;8.448;2023-08-31T13:25:34;10.05;;;1.80;;
37237;SDS011;23129;49.662;8.448;2023-08-31T13:28:03;7.85;;;1.30;;
37237;SDS011;23129;49.662;8.448;2023-08-31T13:30:32;8.80;;;2.33;;
37237;SDS011;23129;49.662;8.448;2023-08-31T13:33:01;7.30;;;2.03;;
37237;SDS011;23129;49.662;8.448;2023-08-31T13:35:32;6.68;;;2.03;;
37237;SDS011;23129;49.662;8.448;2023-08-31T13:38:01;6.88;;;2.33;;
37237;SDS011;23129;49.662;8.448;2023-08-31T13:40:30;6.47;;;1.70;;
37237;SDS011;23129;49.662;8.448;2023-08-31T13:43:02;12.48;;;1.80;;
37237;SDS011;23129;49.662;8.448;2023-08-31T13:45:31;3.17;;;1.63;;
37237;SDS011;23129;49.662;8.448;2023-08-31T13:48:00;6.32;;;1.88;;
37237;SDS011;23129;49.662;8.448;2023-08-31T13:50:30;7.38;;;2.10;;
37237;SDS011;23129;49.662;8.448;2023-08-31T13:52:59;3.85;;;1.77;;
37237;SDS011;23129;49.662;8.448;2023-08-31T13:55:28;2.60;;;1.55;;
37237;SDS011;23129;49.662;8.448;2023-08-31T13:58:04;4.90;;;1.48;;
37237;SDS011;23129;49.662;8.448;2023-08-31T14:00:34;7.38;;;2.05;;
37237;SDS011;23129;49.662;8.448;2023-08-31T14:03:03;5.03;;;2.00;;
37237;SDS011;23129;49.662;8.448;2023-08-31T14:05:32;6.95;;;1.65;;
37237;SDS011;23129;49.662;8.448;2023-08-31T14:08:01;2.08;;;1.67;;
37237;SDS011;23129;49.662;8.448;2023-08-31T14:10:31;2.92;;;1.45;;
37237;SDS011;23129;49.662;8.448;2023-08-31T14:13:00;9.68;;;1.30;;
37237;SDS011;23129;49.662;8.448;2023-08-31T14:15:31;5.82;;;1.75;;
37237;SDS011;23129;49.662;8.448;2023-08-31T14:17:59;7.70;;;2.03;;
37237;SDS011;23129;49.662;8.448;2023-08-31T14:20:28;7.35;;;1.58;;
37237;SDS011;23129;49.662;8.448;2023-08-31T14:22:58;5.80;;;1.75;;
37237;SDS011;23129;49.662;8.448;2023-08-31T14:25:26;4.38;;;1.40;;
37237;SDS011;23129;49.662;8.448;2023-08-31T14:27:55;5.05;;;1.73;;
37237;SDS011;23129;49.662;8.448;2023-08-31T14:30:24;8.15;;;1.67;;
37237;SDS011;23129;49.662;8.448;2023-08-31T14:32:54;6.28;;;1.80;;
37237;SDS011;23129;49.662;8.448;2023-08-31T14:35:23;6.25;;;1.50;;
37237;SDS011;23129;49.662;8.448;2023-08-31T14:37:52;6.03;;;1.95;;
37237;SDS011;23129;49.662;8.448;2023-08-31T14:40:20;15.02;;;2.10;;
37237;SDS011;23129;49.662;8.448;2023-08-31T14:42:49;7.75;;;1.90;;
37237;SDS011;23129;49.662;8.448;2023-08-31T14:45:20;11.98;;;2.05;;
37237;SDS011;23129;49.662;8.448;2023-08-31T14:47:49;7.60;;;1.83;;
37237;SDS011;23129;49.662;8.448;2023-08-31T14:50:19;7.63;;;2.45;;
37237;SDS011;23129;49.662;8.448;2023-08-31T14:52:48;4.95;;;2.00;;
37237;SDS011;23129;49.662;8.448;2023-08-31T14:55:17;7.53;;;2.08;;
37237;SDS011;23129;49.662;8.448;2023-08-31T14:57:45;5.80;;;2.38;;
37237;SDS011;23129;49.662;8.448;2023-08-31T15:00:14;6.95;;;2.03;;
37237;SDS011;23129;49.662;8.448;2023-08-31T15:02:43;11.57;;;1.50;;